Time;durP1;ratioP1;P1;durP2;ratioP2;P2;SDS_P1;SDS_P2;PMS_P1;PMS_P2;Temp;Humidity;BMP_temperature;BMP_pressure;BME280_temperature;BME280_humidity;BME280_pressure;Samples;Min_cycle;Max_cycle;Signal;HPM_P1;HPM_P2
2022/01/08 00:01:11;;;;;;;26.73;7.05;;;8.70;99.90;;;;;;5055020;28;20033;-75
2022/01/08 00:03:40;;;;;;;22.55;7.43;;;8.70;99.90;;;;;;5055268;28;20056;-73
2022/01/08 00:06:07;;;;;;;23.98;6.13;;;8.70;99.90;;;;;;5051180;28;20493;-73
2022/01/08 00:08:33;;;;;;;30.58;6.63;;;8.70;99.90;;;;;;5054835;28;20029;-74
2022/01/08 00:10:59;;;;;;;30.42;6.85;;;8.70;99.90;;;;;;5054754;28;20390;-74
2022/01/08 00:13:25;;;;;;;26.38;5.50;;;8.70;99.90;;;;;;5054750;28;20515;-75
2022/01/08 00:15:51;;;;;;;39.08;5.55;;;8.70;99.90;;;;;;5054701;28;20025;-74
2022/01/08 00:18:16;;;;;;;32.65;6.07;;;8.80;99.90;;;;;;5054709;28;20062;-73
2022/01/08 00:20:42;;;;;;;27.63;5.38;;;8.70;99.90;;;;;;5054434;28;20069;-73
2022/01/08 00:23:08;;;;;;;25.05;5.40;;;8.70;99.90;;;;;;5054582;28;20390;-74
2022/01/08 00:25:34;;;;;;;27.70;5.68;;;8.70;99.90;;;;;;5054800;28;20025;-74
2022/01/08 00:27:59;;;;;;;24.83;6.68;;;8.70;99.90;;;;;;5054247;28;20033;-74
2022/01/08 00:30:25;;;;;;;26.80;5.35;;;8.70;99.90;;;;;;5054670;28;20033;-74
2022/01/08 00:32:51;;;;;;;23.15;5.32;;;8.70;99.90;;;;;;5054627;28;20035;-74
2022/01/08 00:35:17;;;;;;;23.02;5.30;;;8.70;99.90;;;;;;5054584;28;20018;-74
2022/01/08 00:37:43;;;;;;;27.30;6.25;;;8.70;99.90;;;;;;5054247;28;20564;-74
2022/01/08 00:40:10;;;;;;;29.38;6.65;;;8.70;99.90;;;;;;5054488;28;20088;-74
2022/01/08 00:42:37;;;;;;;25.42;5.88;;;8.70;99.90;;;;;;5054354;28;20116;-73
2022/01/08 00:45:04;;;;;;;30.63;6.32;;;8.70;99.90;;;;;;5054122;28;20021;-74
2022/01/08 00:47:29;;;;;;;26.67;6.57;;;8.70;99.90;;;;;;5054039;28;20021;-75
2022/01/08 00:49:55;;;;;;;28.90;5.45;;;8.70;99.90;;;;;;5054591;28;20036;-74
2022/01/08 00:52:21;;;;;;;32.15;5.50;;;8.60;99.90;;;;;;5054162;28;20028;-74
2022/01/08 00:54:47;;;;;;;23.77;6.20;;;8.60;99.90;;;;;;5053927;28;20092;-74
2022/01/08 00:57:12;;;;;;;25.75;5.53;;;8.60;99.90;;;;;;5053892;28;20411;-74
2022/01/08 00:59:38;;;;;;;22.73;5.18;;;8.60;99.90;;;;;;5053893;28;20383;-73
2022/01/08 01:02:04;;;;;;;32.63;7.50;;;8.60;99.90;;;;;;5053809;28;20495;-74
2022/01/08 01:04:29;;;;;;;25.05;6.22;;;8.60;99.90;;;;;;5054341;28;20024;-73
2022/01/08 01:06:55;;;;;;;31.35;5.95;;;8.60;99.90;;;;;;5052675;28;20031;-74
2022/01/08 01:09:21;;;;;;;35.28;5.57;;;8.60;99.90;;;;;;5053678;28;20037;-74
2022/01/08 01:11:46;;;;;;;28.42;6.10;;;8.60;99.90;;;;;;5053893;28;20029;-74
2022/01/08 01:14:12;;;;;;;25.55;5.72;;;8.60;99.90;;;;;;5053649;28;20017;-74
2022/01/08 01:16:38;;;;;;;26.88;5.72;;;8.60;99.90;;;;;;5053599;28;20087;-75
2022/01/08 01:19:04;;;;;;;30.90;5.38;;;8.70;99.90;;;;;;5053565;28;20083;-74
2022/01/08 01:21:31;;;;;;;29.58;6.20;;;8.70;99.90;;;;;;5053497;28;20120;-73
2022/01/08 01:23:57;;;;;;;30.73;5.65;;;8.70;99.90;;;;;;5053463;28;20029;-75
2022/01/08 01:26:26;;;;;;;32.03;6.85;;;8.70;99.90;;;;;;5053669;28;20049;-75
2022/01/08 01:47:17;;;;;;;29.52;7.57;;;8.70;99.90;;;;;;5053212;28;20082;-75
2022/01/08 01:49:46;;;;;;;33.90;5.80;;;8.70;99.90;;;;;;5053137;28;20133;-74
2022/01/08 01:52:15;;;;;;;24.05;5.22;;;8.70;99.90;;;;;;5053018;28;20032;-74
2022/01/08 01:54:42;;;;;;;28.60;5.70;;;8.70;99.90;;;;;;5053060;28;20049;-74
2022/01/08 01:57:10;;;;;;;28.63;5.60;;;8.70;99.90;;;;;;5053080;28;20031;-74
2022/01/08 01:59:37;;;;;;;33.88;6.70;;;8.70;99.90;;;;;;5053056;28;20465;-74
2022/01/08 02:02:03;;;;;;;32.65;6.32;;;8.70;99.90;;;;;;5053045;28;20025;-74
2022/01/08 02:04:29;;;;;;;28.17;6.40;;;8.70;99.90;;;;;;5053276;28;20050;-74
2022/01/08 02:06:55;;;;;;;35.10;5.53;;;8.70;99.90;;;;;;5053289;28;20021;-74
2022/01/08 02:09:20;;;;;;;29.40;6.68;;;8.70;99.90;;;;;;5053236;28;20032;-74
2022/01/08 02:12:02;;;;;;;25.63;5.85;;;8.70;99.90;;;;;;5051629;28;20036;-73
2022/01/08 02:14:31;;;;;;;27.02;6.00;;;8.70;99.90;;;;;;5053212;28;20415;-74
2022/01/08 02:16:58;;;;;;;24.20;5.73;;;8.70;99.90;;;;;;5052948;28;20021;-74
2022/01/08 02:19:24;;;;;;;33.58;6.65;;;8.70;99.90;;;;;;5052875;28;20025;-74
2022/01/08 02:21:55;;;;;;;34.33;5.57;;;8.70;99.90;;;;;;5052826;28;20013;-74
2022/01/08 02:24:21;;;;;;;30.15;6.80;;;8.70;99.90;;;;;;5053142;28;20481;-74
2022/01/08 02:26:46;;;;;;;29.85;5.47;;;8.70;99.90;;;;;;5052833;28;20075;-74
2022/01/08 02:29:13;;;;;;;27.52;5.90;;;8.60;99.90;;;;;;5052589;28;20045;-75
2022/01/08 02:31:40;;;;;;;25.77;6.55;;;8.70;99.90;;;;;;5052701;28;20445;-74
2022/01/08 02:34:07;;;;;;;29.48;7.18;;;8.60;99.90;;;;;;5052721;28;20397;-74
2022/01/08 02:36:35;;;;;;;34.75;5.88;;;8.60;99.90;;;;;;5052689;28;20075;-73
2022/01/08 02:39:01;;;;;;;31.25;6.38;;;8.60;99.90;;;;;;5052954;28;20389;-73
2022/01/08 02:41:27;;;;;;;29.63;7.03;;;8.60;99.90;;;;;;5052546;28;20031;-73
2022/01/08 02:43:54;;;;;;;22.85;8.15;;;8.60;99.90;;;;;;5052838;28;20027;-73
2022/01/08 02:46:21;;;;;;;24.45;7.38;;;8.60;99.90;;;;;;5055109;28;20025;-73
2022/01/08 02:48:47;;;;;;;29.15;8.18;;;8.60;99.90;;;;;;5056324;28;20068;-74
2022/01/08 02:51:12;;;;;;;32.15;6.43;;;8.60;99.90;;;;;;5056214;28;20061;-73
2022/01/08 02:53:39;;;;;;;29.40;6.93;;;8.60;99.90;;;;;;5056270;28;20103;-74
2022/01/08 02:56:04;;;;;;;25.20;5.68;;;8.50;99.90;;;;;;5056487;28;20017;-74
2022/01/08 02:58:30;;;;;;;29.02;7.38;;;8.50;99.90;;;;;;5056442;28;20021;-74
2022/01/08 03:00:57;;;;;;;22.63;5.45;;;8.50;99.90;;;;;;5056659;28;20025;-73
2022/01/08 03:03:23;;;;;;;25.88;7.20;;;8.50;99.90;;;;;;5056115;28;20103;-75
2022/01/08 03:05:49;;;;;;;22.95;5.63;;;8.50;99.90;;;;;;5056032;28;20393;-73
2022/01/08 03:08:14;;;;;;;27.92;5.35;;;8.40;99.90;;;;;;5056019;28;20029;-74
2022/01/08 03:10:40;;;;;;;26.52;5.93;;;8.40;99.90;;;;;;5056142;28;20057;-74
2022/01/08 03:13:07;;;;;;;27.65;6.13;;;8.30;99.90;;;;;;5056442;28;20028;-73
2022/01/08 03:15:35;;;;;;;32.30;6.78;;;8.40;99.90;;;;;;5055885;28;20021;-74
2022/01/08 03:18:03;;;;;;;27.63;5.63;;;8.40;99.90;;;;;;5055776;28;20021;-73
2022/01/08 03:20:29;;;;;;;27.83;6.15;;;8.40;99.90;;;;;;5055758;28;20021;-73
2022/01/08 03:23:02;;;;;;;31.25;6.78;;;8.30;99.90;;;;;;5055951;28;20033;-74
2022/01/08 03:25:28;;;;;;;26.83;5.95;;;8.40;99.90;;;;;;5055674;28;20056;-73
2022/01/08 03:27:54;;;;;;;35.45;5.97;;;8.30;99.90;;;;;;5055719;28;20025;-74
2022/01/08 03:30:20;;;;;;;28.15;5.45;;;8.30;99.90;;;;;;5055325;28;20055;-74
2022/01/08 03:32:46;;;;;;;34.60;5.88;;;8.30;99.90;;;;;;5055547;28;20032;-74
2022/01/08 03:35:12;;;;;;;22.90;5.30;;;8.40;99.90;;;;;;5055449;28;20389;-74
2022/01/08 03:37:38;;;;;;;33.97;5.95;;;8.30;99.90;;;;;;5055704;28;20021;-74
2022/01/08 03:40:05;;;;;;;28.20;5.43;;;8.30;99.90;;;;;;5055401;28;20100;-73
2022/01/08 03:42:32;;;;;;;29.58;6.75;;;8.30;99.90;;;;;;5055759;28;20381;-74
2022/01/08 03:44:57;;;;;;;27.80;5.60;;;8.30;99.90;;;;;;5055276;28;20021;-73
2022/01/08 03:47:31;;;;;;;29.25;5.38;;;8.30;99.90;;;;;;5055794;28;20021;-73
2022/01/08 03:49:59;;;;;;;28.90;6.65;;;8.30;99.90;;;;;;5055510;28;20032;-73
2022/01/08 03:52:27;;;;;;;26.15;5.05;;;8.20;99.90;;;;;;5055113;28;20044;-74
2022/01/08 03:54:53;;;;;;;29.35;6.68;;;8.20;99.90;;;;;;5055131;28;20021;-75
2022/01/08 03:57:19;;;;;;;27.73;5.72;;;8.20;99.90;;;;;;5054518;28;20035;-73
2022/01/08 03:59:44;;;;;;;32.53;5.82;;;8.20;99.90;;;;;;5055039;28;20024;-74
2022/01/08 04:02:10;;;;;;;24.63;4.65;;;8.20;99.90;;;;;;5055517;28;20029;-73
2022/01/08 04:04:36;;;;;;;36.35;6.00;;;8.30;99.90;;;;;;5055494;28;20023;-74
2022/01/08 04:07:01;;;;;;;25.77;5.20;;;8.30;99.90;;;;;;5054894;28;20500;-73
2022/01/08 04:09:27;;;;;;;22.83;4.65;;;8.30;99.90;;;;;;5055413;28;20032;-74
2022/01/08 04:11:55;;;;;;;31.30;4.90;;;8.30;99.90;;;;;;5054708;28;20036;-74
2022/01/08 04:14:21;;;;;;;29.05;5.63;;;8.30;99.90;;;;;;5054752;28;20024;-74
2022/01/08 04:16:50;;;;;;;26.65;6.00;;;8.30;99.90;;;;;;5054979;28;20021;-73
2022/01/08 04:19:16;;;;;;;25.13;4.97;;;8.30;99.90;;;;;;5053417;28;20018;-73
2022/01/08 04:22:07;;;;;;;29.15;4.82;;;8.30;99.90;;;;;;5054593;28;20481;-74
2022/01/08 04:24:33;;;;;;;24.20;5.30;;;8.20;99.90;;;;;;5053312;28;20024;-75
2022/01/08 04:26:58;;;;;;;27.63;5.65;;;8.30;99.90;;;;;;5054528;28;20435;-74
2022/01/08 04:29:24;;;;;;;22.25;5.60;;;8.30;99.90;;;;;;5054380;28;20055;-73
2022/01/08 04:31:50;;;;;;;33.45;5.90;;;8.30;99.90;;;;;;5054650;28;20366;-73
2022/01/08 04:34:15;;;;;;;27.25;6.03;;;8.30;99.90;;;;;;5054356;28;20029;-74
2022/01/08 04:36:41;;;;;;;23.10;5.55;;;8.30;99.90;;;;;;5054571;28;20020;-73
2022/01/08 04:39:06;;;;;;;31.88;5.53;;;8.30;99.90;;;;;;5054793;28;20025;-74
2022/01/08 04:41:32;;;;;;;27.17;5.63;;;8.30;99.90;;;;;;5054184;28;20029;-74
2022/01/08 04:43:58;;;;;;;26.67;5.25;;;8.30;99.90;;;;;;5054187;28;20040;-74
2022/01/08 04:46:23;;;;;;;26.00;4.60;;;8.30;99.90;;;;;;5054143;28;20021;-73
2022/01/08 04:48:49;;;;;;;25.42;5.30;;;8.40;99.90;;;;;;5054076;28;20108;-75
2022/01/08 04:51:15;;;;;;;28.15;5.90;;;8.30;99.90;;;;;;5054240;28;20061;-74
2022/01/08 04:53:40;;;;;;;27.63;5.40;;;8.40;99.90;;;;;;5053988;28;20086;-74
2022/01/08 04:56:06;;;;;;;30.67;6.10;;;8.40;99.90;;;;;;5053977;28;20021;-73
2022/01/08 04:58:32;;;;;;;32.55;5.18;;;8.40;99.90;;;;;;5052659;28;20025;-73
2022/01/08 05:00:58;;;;;;;26.92;6.88;;;8.40;99.90;;;;;;5053836;28;20059;-73
2022/01/08 05:03:24;;;;;;;23.52;5.95;;;8.40;99.90;;;;;;5053830;28;20053;-74
2022/01/08 05:05:49;;;;;;;23.88;5.55;;;8.40;99.90;;;;;;5054074;28;20048;-74
2022/01/08 05:08:15;;;;;;;28.10;5.38;;;8.40;99.90;;;;;;5052905;28;20029;-74
2022/01/08 05:10:41;;;;;;;26.65;4.82;;;8.50;99.90;;;;;;5053675;28;20444;-73
2022/01/08 05:13:06;;;;;;;25.08;4.40;;;8.40;99.90;;;;;;5053656;28;20025;-74
2022/01/08 05:15:33;;;;;;;26.88;5.93;;;8.40;99.90;;;;;;5053598;28;20028;-74
2022/01/08 05:17:59;;;;;;;30.77;5.68;;;8.50;99.90;;;;;;5053588;28;20059;-73
2022/01/08 05:20:29;;;;;;;29.98;6.13;;;8.40;99.90;;;;;;5054117;28;20017;-74
2022/01/08 05:23:00;;;;;;;30.60;5.93;;;8.40;99.90;;;;;;5051950;28;20070;-74
2022/01/08 05:25:27;;;;;;;31.73;5.22;;;8.50;99.90;;;;;;5051976;28;20028;-75
2022/01/08 05:27:52;;;;;;;26.90;5.65;;;8.50;99.90;;;;;;5053721;28;20017;-74
2022/01/08 05:30:21;;;;;;;31.50;4.95;;;8.50;99.90;;;;;;5053596;28;20036;-75
2022/01/08 05:32:47;;;;;;;22.52;4.68;;;8.50;99.90;;;;;;5053638;28;20043;-75
2022/01/08 05:35:13;;;;;;;21.95;5.18;;;8.50;99.90;;;;;;5053605;28;20028;-74
2022/01/08 05:37:39;;;;;;;25.17;5.53;;;8.50;99.90;;;;;;5053343;28;20163;-73
2022/01/08 05:40:06;;;;;;;18.52;4.25;;;8.50;99.90;;;;;;5053255;28;20029;-74
2022/01/08 05:42:31;;;;;;;23.55;4.57;;;8.40;99.90;;;;;;5053181;28;20025;-75
2022/01/08 05:44:57;;;;;;;24.90;6.45;;;8.50;99.90;;;;;;5053217;28;20033;-73
2022/01/08 05:47:23;;;;;;;24.70;5.63;;;8.50;99.90;;;;;;5053768;28;20029;-74
2022/01/08 05:49:49;;;;;;;28.25;5.50;;;8.50;99.90;;;;;;5053199;28;20032;-74
2022/01/08 05:52:15;;;;;;;21.90;4.88;;;8.50;99.90;;;;;;5053137;28;20027;-74
2022/01/08 05:54:42;;;;;;;29.75;5.32;;;8.50;99.90;;;;;;5053391;28;20119;-74
2022/01/08 05:57:08;;;;;;;31.00;5.10;;;8.50;99.90;;;;;;5053386;28;20406;-74
2022/01/08 05:59:33;;;;;;;26.45;4.65;;;8.50;99.90;;;;;;5053109;28;20032;-73
2022/01/08 06:01:59;;;;;;;21.23;5.18;;;8.50;99.90;;;;;;5053068;28;20362;-74
2022/01/08 06:04:25;;;;;;;24.08;4.45;;;8.50;99.90;;;;;;5053299;28;20139;-74
2022/01/08 06:06:50;;;;;;;25.02;4.60;;;8.50;99.90;;;;;;5053807;28;20054;-75
2022/01/08 06:09:16;;;;;;;20.48;5.72;;;8.50;99.90;;;;;;5053253;28;20033;-74
2022/01/08 06:11:42;;;;;;;23.98;5.30;;;8.50;99.90;;;;;;5052950;28;20075;-73
2022/01/08 06:14:07;;;;;;;24.70;4.78;;;8.60;99.90;;;;;;5052939;28;20477;-74
2022/01/08 06:16:34;;;;;;;24.42;5.07;;;8.60;99.90;;;;;;5052913;28;20013;-73
2022/01/08 06:19:05;;;;;;;26.17;5.70;;;8.60;99.90;;;;;;5051988;28;20025;-74
2022/01/08 06:21:31;;;;;;;24.45;4.82;;;8.60;99.90;;;;;;5057189;28;20560;-74
2022/01/08 06:23:57;;;;;;;22.15;4.90;;;8.60;99.90;;;;;;5056869;28;20108;-74
2022/01/08 06:26:23;;;;;;;23.30;6.45;;;8.70;99.90;;;;;;5056840;28;20101;-74
2022/01/08 06:28:51;;;;;;;26.13;5.03;;;8.70;99.90;;;;;;5056909;28;20053;-73
2022/01/08 06:31:20;;;;;;;29.55;4.43;;;8.60;99.90;;;;;;5056649;28;20029;-74
2022/01/08 06:33:46;;;;;;;19.65;5.95;;;8.70;99.90;;;;;;5056654;28;20029;-74
2022/01/08 06:36:13;;;;;;;29.42;5.43;;;8.70;99.90;;;;;;5057156;28;20032;-74
2022/01/08 06:38:40;;;;;;;27.05;4.97;;;8.70;99.90;;;;;;5056519;28;20021;-73
2022/01/08 06:41:06;;;;;;;33.47;5.55;;;8.80;99.90;;;;;;5056390;28;20481;-74
2022/01/08 06:43:31;;;;;;;32.67;13.07;;;8.70;99.90;;;;;;5056768;28;20037;-73
2022/01/08 06:45:57;;;;;;;25.88;7.25;;;8.80;99.90;;;;;;5056475;28;20491;-74
2022/01/08 06:48:23;;;;;;;31.98;6.45;;;8.80;99.90;;;;;;5056400;28;20029;-74
2022/01/08 06:50:49;;;;;;;25.02;6.03;;;8.80;99.90;;;;;;5056535;28;20461;-74
2022/01/08 06:53:14;;;;;;;30.45;5.60;;;8.80;99.90;;;;;;5056576;28;20432;-73
2022/01/08 06:55:40;;;;;;;26.17;5.13;;;8.80;99.90;;;;;;5056511;28;20021;-74
2022/01/08 06:58:06;;;;;;;21.42;5.32;;;8.80;99.90;;;;;;5056234;28;20036;-74
2022/01/08 07:00:31;;;;;;;32.75;5.38;;;8.80;99.90;;;;;;5056706;28;20050;-74
2022/01/08 07:02:57;;;;;;;30.90;6.78;;;8.90;99.90;;;;;;5056094;28;20033;-74
2022/01/08 07:05:22;;;;;;;25.40;5.82;;;8.90;99.90;;;;;;5056077;28;20025;-74
2022/01/08 07:07:48;;;;;;;26.50;4.72;;;8.90;99.90;;;;;;5056026;28;20021;-74
2022/01/08 07:10:14;;;;;;;29.70;5.40;;;8.90;99.90;;;;;;5055909;28;20032;-75
2022/01/08 07:12:39;;;;;;;29.08;6.22;;;8.90;99.90;;;;;;5055936;28;20048;-74
2022/01/08 07:15:06;;;;;;;32.00;5.45;;;8.90;99.90;;;;;;5055870;28;20397;-74
2022/01/08 07:17:31;;;;;;;28.25;5.57;;;9.00;99.90;;;;;;5056089;28;20025;-74
2022/01/08 07:19:57;;;;;;;30.33;6.25;;;9.00;99.90;;;;;;5056087;28;20079;-74
2022/01/08 07:22:23;;;;;;;26.40;6.07;;;9.00;99.90;;;;;;5055752;28;20512;-74
2022/01/08 07:24:48;;;;;;;27.33;4.90;;;9.00;99.90;;;;;;5055678;28;20029;-74
2022/01/08 07:27:15;;;;;;;32.03;6.82;;;9.00;99.90;;;;;;5055655;28;20483;-75
2022/01/08 07:29:41;;;;;;;20.63;5.60;;;9.00;99.90;;;;;;5055515;28;20049;-75
2022/01/08 07:32:07;;;;;;;24.33;6.10;;;9.00;99.90;;;;;;5054824;28;20033;-74
2022/01/08 07:34:32;;;;;;;28.83;5.97;;;9.10;99.90;;;;;;5055515;28;20104;-74
2022/01/08 07:36:58;;;;;;;28.30;6.25;;;9.10;99.90;;;;;;5055488;28;20075;-74
2022/01/08 07:39:24;;;;;;;21.42;5.07;;;9.00;99.90;;;;;;5055449;28;20076;-75
2022/01/08 07:41:49;;;;;;;28.75;4.90;;;9.10;99.90;;;;;;5055312;28;20035;-74
2022/01/08 07:44:15;;;;;;;26.58;6.30;;;9.10;99.90;;;;;;5055365;28;20025;-74
2022/01/08 07:46:41;;;;;;;30.60;14.82;;;9.10;99.90;;;;;;5055336;28;20043;-74
2022/01/08 07:49:06;;;;;;;33.17;6.38;;;9.10;99.90;;;;;;5055252;28;20545;-74
2022/01/08 07:51:32;;;;;;;23.00;5.03;;;9.20;99.90;;;;;;5055390;28;20033;-74
2022/01/08 07:53:58;;;;;;;27.27;11.68;;;9.20;99.90;;;;;;5055443;28;20017;-74
2022/01/08 07:56:23;;;;;;;25.00;9.77;;;9.20;99.90;;;;;;5055418;28;20052;-74
2022/01/08 07:58:49;;;;;;;22.65;5.57;;;9.20;99.90;;;;;;5055068;28;20026;-73
2022/01/08 08:01:14;;;;;;;23.67;4.60;;;9.20;99.90;;;;;;5055223;28;20025;-74
2022/01/08 08:03:40;;;;;;;23.17;4.40;;;9.30;99.90;;;;;;5055579;28;20078;-74
2022/01/08 08:06:12;;;;;;;26.17;4.82;;;9.30;99.90;;;;;;5055242;28;20033;-74
2022/01/08 08:08:38;;;;;;;26.08;4.70;;;9.30;99.90;;;;;;5054901;28;20036;-73
2022/01/08 08:11:04;;;;;;;30.50;4.88;;;9.30;99.90;;;;;;5055032;28;20397;-74
2022/01/08 08:13:29;;;;;;;26.90;5.22;;;9.30;99.90;;;;;;5054811;28;20416;-74
2022/01/08 08:15:55;;;;;;;25.05;4.20;;;9.30;99.90;;;;;;5054785;28;20025;-74
2022/01/08 08:18:20;;;;;;;19.75;5.43;;;9.30;99.90;;;;;;5054742;28;20025;-74
2022/01/08 08:20:46;;;;;;;28.42;5.40;;;9.30;99.90;;;;;;5054639;28;20500;-74
2022/01/08 08:23:12;;;;;;;19.35;6.32;;;9.30;99.90;;;;;;5054609;28;20045;-74
2022/01/08 08:25:39;;;;;;;19.73;4.47;;;9.30;99.90;;;;;;5054587;28;20032;-74
2022/01/08 08:28:06;;;;;;;18.88;4.70;;;9.30;99.90;;;;;;5054794;28;20025;-74
2022/01/08 08:30:33;;;;;;;27.00;4.80;;;9.40;99.90;;;;;;5054726;28;20036;-73
2022/01/08 08:33:00;;;;;;;25.05;6.03;;;9.40;99.90;;;;;;5054420;28;20374;-74
2022/01/08 08:35:26;;;;;;;18.40;5.03;;;9.40;99.90;;;;;;5054369;28;20092;-73
2022/01/08 08:37:52;;;;;;;28.58;6.55;;;9.50;99.90;;;;;;5054307;28;20460;-74
2022/01/08 08:40:17;;;;;;;23.48;6.93;;;9.50;99.90;;;;;;5054225;28;20021;-74
2022/01/08 08:42:43;;;;;;;26.13;6.38;;;9.50;99.90;;;;;;5054400;28;20115;-75
2022/01/08 08:45:10;;;;;;;23.73;6.22;;;9.50;99.90;;;;;;5054501;28;20100;-73
2022/01/08 08:47:36;;;;;;;24.23;6.70;;;9.60;99.90;;;;;;5054640;28;20021;-74
2022/01/08 08:50:03;;;;;;;36.80;11.80;;;9.60;99.90;;;;;;5054309;28;20018;-73
2022/01/08 08:52:28;;;;;;;26.90;6.65;;;9.60;99.90;;;;;;5054253;28;20474;-75
2022/01/08 08:54:54;;;;;;;26.40;6.18;;;9.60;99.90;;;;;;5054016;28;20043;-74
2022/01/08 08:57:20;;;;;;;28.00;6.70;;;9.60;99.90;;;;;;5053938;28;20489;-73
2022/01/08 08:59:46;;;;;;;19.67;4.15;;;9.70;99.90;;;;;;5053916;28;20055;-73
2022/01/08 09:02:11;;;;;;;27.15;8.82;;;9.70;99.90;;;;;;5053860;28;20032;-74
2022/01/08 09:04:40;;;;;;;40.70;15.48;;;9.70;99.90;;;;;;5053843;28;20440;-73
2022/01/08 09:07:06;;;;;;;21.48;7.53;;;9.70;99.90;;;;;;5053745;28;20086;-74
2022/01/08 09:09:31;;;;;;;29.25;9.38;;;9.70;99.90;;;;;;5053749;28;20021;-74
2022/01/08 09:11:57;;;;;;;25.88;6.55;;;9.70;99.90;;;;;;5053898;28;20039;-74
2022/01/08 09:14:23;;;;;;;25.25;5.50;;;9.70;99.90;;;;;;5053612;28;20024;-74
2022/01/08 09:16:52;;;;;;;19.88;4.07;;;9.80;99.90;;;;;;5053633;28;20074;-74
2022/01/08 09:19:21;;;;;;;26.02;7.20;;;9.80;99.90;;;;;;5054116;28;20024;-74
2022/01/08 09:21:47;;;;;;;18.05;5.07;;;9.80;99.90;;;;;;5053525;28;20028;-74
2022/01/08 09:24:14;;;;;;;22.75;5.05;;;9.80;99.90;;;;;;5053506;28;20107;-74
2022/01/08 09:26:40;;;;;;;37.88;16.17;;;9.80;99.90;;;;;;5053464;28;20461;-73
2022/01/08 09:29:05;;;;;;;14.43;4.55;;;9.80;99.90;;;;;;5053283;28;20048;-73
2022/01/08 09:31:32;;;;;;;17.52;4.68;;;9.90;99.90;;;;;;5053617;28;20036;-74
2022/01/08 09:33:58;;;;;;;25.98;7.68;;;9.90;99.90;;;;;;5053409;28;20067;-74
2022/01/08 09:36:25;;;;;;;19.40;3.90;;;9.90;99.90;;;;;;5053383;28;20100;-74
2022/01/08 09:38:50;;;;;;;24.95;8.90;;;9.90;99.90;;;;;;5053364;28;20032;-74
2022/01/08 09:41:16;;;;;;;22.85;7.10;;;9.90;99.90;;;;;;5053181;28;20032;-73
2022/01/08 09:43:43;;;;;;;29.02;6.22;;;9.90;99.90;;;;;;5053232;28;20025;-74
2022/01/08 09:46:08;;;;;;;21.98;8.45;;;9.80;99.90;;;;;;5053124;28;20481;-81
2022/01/08 09:48:34;;;;;;;16.50;4.63;;;9.80;99.90;;;;;;5053131;28;20031;-86
2022/01/08 09:53:45;;;;;;;26.42;5.32;;;9.80;99.90;;;;;;5052944;28;20100;-86
2022/01/08 09:56:11;;;;;;;15.90;3.67;;;9.80;99.90;;;;;;5053122;28;20435;-73
2022/01/08 09:58:37;;;;;;;19.50;3.67;;;9.70;99.90;;;;;;5053114;28;20029;-74
2022/01/08 10:01:25;;;;;;;21.73;4.35;;;9.80;99.90;;;;;;5053036;28;20025;-75
2022/01/08 10:03:51;;;;;;;18.65;5.35;;;9.80;99.90;;;;;;5053378;28;20029;-81
2022/01/08 10:06:29;;;;;;;19.38;5.13;;;9.80;99.90;;;;;;5051690;28;20370;-84
2022/01/08 10:08:55;;;;;;;16.48;4.72;;;9.80;99.90;;;;;;5053048;28;20025;-78
2022/01/08 10:11:23;;;;;;;17.30;6.85;;;9.80;99.90;;;;;;5053205;28;20420;-80
2022/01/08 10:14:00;;;;;;;19.23;3.83;;;9.70;99.90;;;;;;5051579;28;20055;-77
2022/01/08 10:19:17;;;;;;;15.85;4.07;;;9.70;99.90;;;;;;5053442;28;20108;-76
2022/01/08 10:21:44;;;;;;;15.65;3.55;;;9.80;99.90;;;;;;5052804;28;20084;-78
2022/01/08 10:24:10;;;;;;;18.35;4.28;;;9.70;99.90;;;;;;5052832;28;20455;-78
2022/01/08 10:26:38;;;;;;;13.05;3.58;;;9.80;99.90;;;;;;5052825;28;20454;-78
2022/01/08 10:29:16;;;;;;;14.95;3.90;;;9.80;99.90;;;;;;5052500;28;20055;-77
2022/01/08 10:31:44;;;;;;;15.43;3.33;;;9.90;99.90;;;;;;5052918;28;20056;-77
2022/01/08 10:34:24;;;;;;;14.85;4.05;;;9.90;99.90;;;;;;5053036;28;20017;-76
2022/01/08 10:37:05;;;;;;;19.17;4.03;;;9.90;99.90;;;;;;5052799;28;20059;-84
2022/01/08 10:39:39;;;;;;;21.77;3.65;;;9.90;99.90;;;;;;5052141;28;20074;-84
2022/01/08 10:42:10;;;;;;;18.42;3.85;;;9.90;99.90;;;;;;5053167;28;20466;-84
2022/01/08 10:44:36;;;;;;;17.27;4.18;;;10.00;99.90;;;;;;5053007;28;20024;-84
2022/01/08 10:47:05;;;;;;;14.10;4.18;;;10.00;99.90;;;;;;5052604;28;20431;-75
2022/01/08 10:50:02;;;;;;;16.73;3.28;;;10.00;99.90;;;;;;5053085;28;20109;-80
2022/01/08 10:52:29;;;;;;;14.82;3.55;;;10.00;99.90;;;;;;5052914;28;20024;-80
2022/01/08 10:54:59;;;;;;;19.42;4.00;;;10.00;99.90;;;;;;5052500;28;20025;-76
2022/01/08 10:57:33;;;;;;;20.85;4.80;;;10.00;99.90;;;;;;5052740;28;20021;-75
2022/01/08 10:59:58;;;;;;;26.17;3.53;;;10.00;99.90;;;;;;5053158;28;20355;-75
2022/01/08 11:02:28;;;;;;;16.88;3.38;;;10.10;99.90;;;;;;5052729;28;20029;-74
2022/01/08 11:04:54;;;;;;;17.63;3.78;;;10.10;99.90;;;;;;5052435;28;20017;-74
2022/01/08 11:07:29;;;;;;;15.52;4.18;;;10.00;99.90;;;;;;5055045;28;20032;-74
2022/01/08 11:10:01;;;;;;;14.43;3.42;;;10.10;99.90;;;;;;5056329;28;20025;-75
2022/01/08 11:12:36;;;;;;;17.73;3.75;;;10.10;99.90;;;;;;5055717;28;20060;-75
2022/01/08 11:15:25;;;;;;;10.88;2.33;;;10.10;99.90;;;;;;5054821;28;20021;-75
2022/01/08 11:18:00;;;;;;;17.30;2.78;;;10.10;99.90;;;;;;5056478;28;20457;-74
2022/01/08 11:20:28;;;;;;;19.40;4.00;;;10.10;99.90;;;;;;5055834;28;20472;-75
2022/01/08 11:22:59;;;;;;;17.10;4.03;;;10.10;99.90;;;;;;5055782;28;20029;-75
2022/01/08 11:25:33;;;;;;;14.00;3.30;;;10.10;99.90;;;;;;5056076;28;20048;-75
2022/01/08 11:28:10;;;;;;;9.27;2.40;;;10.10;99.90;;;;;;5055540;28;20032;-75
2022/01/08 11:30:40;;;;;;;8.30;2.35;;;10.10;99.90;;;;;;5056171;28;20480;-75
2022/01/08 11:33:13;;;;;;;10.18;2.78;;;10.10;99.90;;;;;;5055963;28;20024;-74
2022/01/08 11:35:41;;;;;;;13.50;2.60;;;10.10;99.90;;;;;;5055614;28;20021;-74
2022/01/08 11:38:09;;;;;;;12.27;2.75;;;10.10;99.90;;;;;;5056060;28;20473;-75
2022/01/08 11:40:37;;;;;;;10.35;2.70;;;10.10;99.90;;;;;;5055365;28;20021;-75
2022/01/08 11:43:05;;;;;;;10.27;2.47;;;10.20;99.90;;;;;;5055410;28;20028;-75
2022/01/08 11:45:52;;;;;;;12.70;2.53;;;10.20;99.90;;;;;;5055410;28;20033;-75
2022/01/08 11:48:21;;;;;;;15.10;2.63;;;10.20;99.90;;;;;;5055913;28;20049;-74
2022/01/08 11:50:58;;;;;;;13.80;2.83;;;10.20;99.90;;;;;;5055738;28;20115;-75
2022/01/08 11:53:28;;;;;;;7.60;2.80;;;10.30;99.90;;;;;;5055505;28;20045;-75
2022/01/08 11:55:56;;;;;;;12.57;2.80;;;10.30;99.90;;;;;;5055468;28;20103;-75
2022/01/08 11:58:26;;;;;;;9.23;2.10;;;10.30;99.90;;;;;;5055375;28;20432;-75
2022/01/08 12:01:01;;;;;;;10.00;2.67;;;10.30;99.90;;;;;;5055332;28;20028;-75
2022/01/08 12:03:31;;;;;;;11.43;2.20;;;10.30;99.90;;;;;;5055342;28;20032;-75
2022/01/08 12:05:58;;;;;;;5.45;1.80;;;10.30;99.90;;;;;;5054983;28;20036;-75
2022/01/08 12:08:53;;;;;;;9.48;2.38;;;10.40;99.90;;;;;;5054916;28;20029;-75
2022/01/08 12:11:18;;;;;;;9.60;1.98;;;10.40;99.90;;;;;;5053470;28;20406;-75
2022/01/08 12:13:45;;;;;;;8.15;2.10;;;10.40;99.90;;;;;;5054810;28;20033;-75
2022/01/08 12:16:36;;;;;;;6.07;1.70;;;10.50;99.90;;;;;;5054774;28;20044;-74
2022/01/08 12:19:07;;;;;;;12.50;2.15;;;10.50;99.90;;;;;;5054587;28;20024;-75
2022/01/08 12:21:39;;;;;;;7.28;2.15;;;10.50;99.90;;;;;;5054703;28;20032;-75
2022/01/08 12:24:26;;;;;;;6.18;1.50;;;10.50;99.90;;;;;;5053321;28;20029;-75
2022/01/08 12:26:57;;;;;;;7.93;2.03;;;10.60;99.90;;;;;;5054820;28;20512;-75
2022/01/08 12:29:31;;;;;;;10.57;1.77;;;10.60;99.90;;;;;;5054375;28;20086;-75
2022/01/08 12:32:36;;;;;;;12.57;1.92;;;10.60;99.90;;;;;;5054371;28;20496;-75
2022/01/08 12:35:35;;;;;;;8.48;1.77;;;10.70;99.90;;;;;;5055012;28;20061;-75
2022/01/08 12:38:05;;;;;;;10.40;1.58;;;10.70;99.90;;;;;;5052854;28;20017;-75
2022/01/08 12:40:41;;;;;;;7.63;1.65;;;10.80;99.90;;;;;;5054509;28;20389;-75
2022/01/08 12:43:29;;;;;;;7.10;1.63;;;10.80;99.90;;;;;;5054536;28;20013;-75
2022/01/08 12:46:11;;;;;;;6.93;1.50;;;10.80;99.90;;;;;;5054204;28;20028;-74
2022/01/08 12:48:36;;;;;;;6.10;1.20;;;10.80;99.90;;;;;;5054190;28;20122;-75
2022/01/08 12:51:06;;;;;;;7.32;1.85;;;10.70;99.90;;;;;;5054013;28;20104;-75
2022/01/08 12:53:34;;;;;;;6.68;1.58;;;10.70;99.90;;;;;;5054728;28;20021;-75
2022/01/08 12:56:03;;;;;;;7.45;2.08;;;10.60;99.90;;;;;;5054081;28;20108;-75
2022/01/08 12:58:36;;;;;;;5.95;1.40;;;10.60;99.90;;;;;;5054236;28;20497;-75
2022/01/08 13:01:07;;;;;;;10.30;1.88;;;10.60;99.90;;;;;;5053993;28;20034;-74
2022/01/08 13:03:38;;;;;;;;;;;10.60;99.90;;;;;;5054327;28;20025;-75
2022/01/08 13:06:10;;;;;;;11.40;2.35;;;10.60;99.90;;;;;;5054185;28;19905;-75
2022/01/08 13:08:41;;;;;;;5.38;1.75;;;10.60;99.90;;;;;;5053860;28;20122;-75
2022/01/08 13:11:10;;;;;;;10.13;2.17;;;10.60;99.90;;;;;;5054435;28;20079;-75
2022/01/08 13:13:44;;;;;;;6.20;1.90;;;10.50;99.90;;;;;;5053753;28;20017;-75